createdAt,value
2023-02-02T06:53:52.219Z,735.00
2023-02-02T06:58:52.045Z,853.00
2023-02-02T07:02:52.280Z,941.00
2023-02-02T07:03:52.004Z,951.00
2023-02-02T07:04:51.987Z,981.00
2023-02-02T07:05:52.012Z,998.00
2023-02-02T07:06:51.974Z,993.00
2023-02-02T07:09:02.736Z,990.00
2023-02-02T07:11:12.445Z,984.00
2023-02-02T07:11:51.939Z,980.00
2023-02-02T07:13:51.931Z,980.00
2023-02-02T07:14:51.898Z,982.00
2023-02-02T07:15:51.988Z,984.00
2023-02-02T07:16:51.878Z,987.00
2023-02-02T07:18:51.889Z,993.00
2023-02-02T07:20:51.854Z,991.00
2023-02-02T07:21:51.848Z,988.00
2023-02-02T07:22:51.834Z,989.00
2023-02-02T07:23:51.831Z,990.00
2023-02-02T07:26:51.901Z,995.00
2023-02-02T07:27:51.786Z,993.00
2023-02-02T07:29:51.769Z,991.00
2023-02-02T07:30:51.907Z,991.00
2023-02-02T07:31:51.835Z,990.00
2023-02-02T07:32:51.744Z,990.00
2023-02-02T07:33:51.738Z,987.00
2023-02-02T07:34:51.750Z,985.00
2023-02-02T07:35:51.731Z,983.00
2023-02-02T07:36:51.709Z,981.00
2023-02-02T07:37:51.707Z,979.00
2023-02-02T07:38:51.702Z,978.00
2023-02-02T07:39:51.686Z,981.00
2023-02-02T07:40:51.677Z,981.00
2023-02-02T07:41:51.667Z,980.00
2023-02-02T07:42:51.668Z,978.00
2023-02-02T07:45:51.624Z,971.00
2023-02-02T07:46:51.679Z,981.00
2023-02-02T07:47:51.613Z,989.00
2023-02-02T07:48:51.721Z,1020.00
2023-02-02T07:49:51.605Z,1023.00
2023-02-02T07:51:51.576Z,1011.00
2023-02-02T07:52:51.564Z,1008.00
2023-02-02T07:53:51.704Z,1006.00
2023-02-02T07:54:51.700Z,1002.00
2023-02-02T07:55:51.703Z,1002.00
2023-02-02T07:56:51.534Z,999.00
2023-02-02T07:58:51.512Z,994.00
2023-02-02T07:59:51.505Z,990.00
2023-02-02T08:00:51.893Z,989.00
2023-02-02T08:01:51.558Z,984.00
2023-02-02T08:02:51.520Z,980.00
2023-02-02T08:03:51.495Z,979.00
2023-02-02T08:04:51.460Z,979.00
2023-02-02T08:05:51.710Z,980.00
2023-02-02T08:06:51.517Z,982.00
2023-02-02T08:07:51.737Z,978.00
2023-02-02T08:08:51.428Z,974.00
2023-02-02T08:09:51.423Z,972.00
2023-02-02T08:10:51.422Z,972.00
2023-02-02T08:11:51.417Z,969.00
2023-02-02T08:12:51.716Z,969.00
2023-02-02T08:13:51.387Z,968.00
2023-02-02T08:14:51.369Z,967.00
2023-02-02T08:16:51.357Z,966.00
2023-02-02T08:17:51.347Z,961.00
2023-02-02T08:18:51.335Z,959.00
2023-02-02T08:19:51.333Z,960.00
2023-02-02T08:20:51.714Z,958.00
2023-02-02T08:21:51.311Z,957.00
2023-02-02T08:22:51.362Z,954.00
2023-02-02T08:23:51.292Z,952.00
2023-02-02T08:24:51.299Z,953.00
2023-02-02T08:25:51.754Z,953.00
2023-02-02T08:26:51.333Z,953.00
2023-02-02T08:27:51.259Z,953.00
2023-02-02T08:28:51.240Z,952.00
2023-02-02T08:29:51.715Z,951.00
2023-02-02T08:30:51.299Z,951.00
2023-02-02T08:31:51.791Z,949.00
2023-02-02T08:32:51.231Z,950.00
2023-02-02T08:33:51.208Z,949.00
2023-02-02T08:34:51.195Z,951.00
2023-02-02T08:35:51.194Z,963.00
2023-02-02T08:36:51.241Z,1020.00
2023-02-02T08:37:51.429Z,1022.00
2023-02-02T08:38:51.204Z,1030.00
2023-02-02T08:39:51.263Z,1060.00
2023-02-02T08:40:51.154Z,1074.00
2023-02-02T08:41:51.189Z,1085.00
2023-02-02T08:42:52.125Z,1097.00
2023-02-02T08:43:51.170Z,1112.00
2023-02-02T08:46:01.236Z,1188.00
2023-02-02T08:46:01.395Z,1197.00
2023-02-02T08:46:51.162Z,1201.00
2023-02-02T08:48:05.252Z,1206.00
2023-02-02T08:48:51.077Z,1216.00
2023-02-02T08:49:51.100Z,1228.00
2023-02-02T08:50:51.233Z,1295.00
2023-02-02T08:51:51.232Z,1290.00
2023-02-02T08:52:51.043Z,1296.00
2023-02-02T08:53:51.042Z,1307.00
2023-02-02T08:54:51.281Z,1314.00
2023-02-02T08:55:51.048Z,1317.00
2023-02-02T08:56:51.052Z,1323.00
2023-02-02T08:57:51.260Z,1335.00
2023-02-02T08:58:51.044Z,1335.00
2023-02-02T09:00:51.860Z,1317.00
2023-02-02T09:01:51.137Z,1265.00
2023-02-02T09:02:50.970Z,1254.00
2023-02-02T09:03:50.958Z,1258.00
2023-02-02T09:04:51.230Z,1254.00
2023-02-02T09:05:51.932Z,1247.00
2023-02-02T09:06:51.233Z,1240.00
2023-02-02T09:07:51.236Z,1240.00
2023-02-02T09:08:50.922Z,1245.00
2023-02-02T09:09:50.934Z,1259.00
2023-02-02T09:10:50.955Z,1267.00
2023-02-02T09:11:50.917Z,1280.00
2023-02-02T09:12:51.265Z,1289.00
2023-02-02T09:13:50.890Z,1299.00
2023-02-02T09:16:51.309Z,1351.00
2023-02-02T09:17:50.863Z,1372.00
2023-02-02T09:18:50.869Z,1379.00
2023-02-02T09:19:50.855Z,1391.00
2023-02-02T09:20:50.829Z,1407.00
2023-02-02T09:21:51.278Z,1432.00
2023-02-02T09:22:50.830Z,1447.00
2023-02-02T09:23:50.817Z,1483.00
2023-02-02T09:24:50.822Z,1485.00
2023-02-02T09:25:50.818Z,1486.00
2023-02-02T09:27:50.786Z,1493.00
2023-02-02T09:28:51.122Z,1506.00
2023-02-02T09:29:50.759Z,1513.00
2023-02-02T09:30:50.817Z,1525.00
2023-02-02T09:31:50.813Z,1532.00
2023-02-02T09:33:50.734Z,1546.00
2023-02-02T09:34:50.773Z,1570.00
2023-02-02T09:36:22.494Z,1607.00
2023-02-02T09:39:50.746Z,1640.00
2023-02-02T09:44:50.765Z,1614.00
2023-02-02T09:45:50.806Z,1616.00
2023-02-02T09:47:50.755Z,1624.00
2023-02-02T09:50:50.745Z,1599.00
2023-02-02T09:52:50.808Z,1570.00
2023-02-02T09:54:50.561Z,1584.00
2023-02-02T09:57:50.749Z,1678.00
2023-02-02T10:02:50.757Z,1757.00
2023-02-02T10:03:50.789Z,1765.00
2023-02-02T10:07:50.751Z,1845.00
2023-02-02T10:12:50.788Z,1757.00
2023-02-02T10:17:50.759Z,1698.00
2023-02-02T10:18:50.759Z,1709.00
2023-02-02T10:19:50.762Z,1728.00
2023-02-02T10:24:50.818Z,1778.00
2023-02-02T10:37:50.300Z,1940.00
2023-02-02T10:50:21.934Z,2074.00
2023-02-02T11:09:50.925Z,2331.00
2023-02-02T13:58:48.512Z,1675.00
2023-02-02T14:07:48.433Z,1644.00
2023-02-02T16:14:47.325Z,1378.00
2023-02-02T16:15:47.294Z,1377.00
2023-02-02T16:16:47.404Z,1375.00
2023-02-02T16:18:47.271Z,1374.00
2023-02-02T16:19:47.260Z,1373.00
2023-02-02T16:20:47.255Z,1370.00
2023-02-02T16:21:47.240Z,1369.00
2023-02-02T16:22:47.261Z,1369.00
2023-02-02T16:23:47.224Z,1369.00
2023-02-02T16:24:47.221Z,1367.00
2023-02-02T16:25:47.217Z,1366.00
2023-02-02T16:26:47.299Z,1365.00
2023-02-02T16:27:47.192Z,1363.00
2023-02-02T16:28:47.177Z,1362.00
2023-02-02T16:29:47.189Z,1366.00
2023-02-02T16:30:47.194Z,1366.00
2023-02-02T16:31:47.227Z,1365.00
2023-02-02T16:32:47.144Z,1366.00
2023-02-02T16:33:47.157Z,1363.00
2023-02-02T16:34:47.397Z,1362.00
2023-02-02T16:35:47.129Z,1359.00
2023-02-02T16:36:47.108Z,1356.00
2023-02-02T16:37:47.102Z,1354.00
2023-02-02T16:38:47.110Z,1352.00
2023-02-02T16:39:47.138Z,1352.00
2023-02-02T16:41:47.097Z,1351.00
2023-02-02T16:43:47.043Z,1346.00
2023-02-02T16:44:47.045Z,1342.00
2023-02-02T16:45:47.045Z,1338.00
2023-02-02T16:46:47.025Z,1336.00
2023-02-02T16:47:47.032Z,1334.00
2023-02-02T16:48:47.036Z,1333.00
2023-02-02T16:49:46.989Z,1334.00
2023-02-02T16:50:46.987Z,1334.00
2023-02-02T16:52:46.962Z,1330.00
2023-02-02T16:53:46.981Z,1327.00
2023-02-02T16:54:46.971Z,1325.00
2023-02-02T16:55:51.067Z,1325.00
2023-02-02T17:13:46.821Z,1293.00
2023-02-02T18:55:45.930Z,1184.00
2023-02-02T18:56:45.923Z,1181.00
2023-02-02T18:57:45.924Z,1175.00
2023-02-02T18:58:45.899Z,1172.00
2023-02-02T18:59:45.890Z,1171.00
2023-02-02T19:00:45.881Z,1169.00
2023-02-02T19:01:45.907Z,1167.00
2023-02-02T19:02:45.919Z,1164.00
2023-02-02T19:03:45.887Z,1165.00
2023-02-02T19:04:45.845Z,1163.00
2023-02-02T19:05:45.835Z,1166.00
2023-02-02T19:06:45.824Z,1164.00
2023-02-02T19:07:45.824Z,1166.00
2023-02-02T19:08:45.810Z,1164.00
2023-02-02T19:09:45.808Z,1160.00
2023-02-02T19:10:45.797Z,1158.00
2023-02-02T19:11:45.783Z,1158.00
2023-02-02T19:12:45.773Z,1157.00
